Time;durP1;ratioP1;P1;durP2;ratioP2;P2;SDS_P1;SDS_P2;PMS_P1;PMS_P2;Temp;Humidity;BMP_temperature;BMP_pressure;BME280_temperature;BME280_humidity;BME280_pressure;Samples;Min_cycle;Max_cycle;Signal;HPM_P1;HPM_P2
2022/05/24 04:12:37;;;;;;;3.35;3.05;;;;;;;12.34;100.00;99863.34;5408917;27;20095;-89
2022/05/24 04:15:41;;;;;;;3.20;2.90;;;;;;;12.34;100.00;99860.62;5375599;33;33966;-89
2022/05/24 04:18:44;;;;;;;5.75;3.00;;;;;;;12.40;100.00;99857.16;5361652;33;32119;-89
2022/05/24 04:21:47;;;;;;;4.22;3.30;;;;;;;12.49;100.00;99874.00;5375904;33;33691;-89
2022/05/24 04:24:53;;;;;;;4.37;3.05;;;;;;;12.60;100.00;99878.78;5376403;33;34885;-88
2022/05/24 04:27:56;;;;;;;4.35;3.22;;;;;;;12.62;100.00;99881.31;5362120;33;32489;-88
2022/05/24 04:31:04;;;;;;;4.90;3.50;;;;;;;12.66;100.00;99874.44;5361867;33;32076;-89
2022/05/24 04:34:07;;;;;;;5.53;3.47;;;;;;;12.70;100.00;99873.03;5374244;33;33634;-88
2022/05/24 04:37:10;;;;;;;3.33;2.95;;;;;;;12.69;100.00;99874.91;5373496;33;33503;-88
2022/05/24 04:40:13;;;;;;;5.20;3.95;;;;;;;12.70;100.00;99870.31;5528221;27;33832;-88
2022/05/24 04:43:16;;;;;;;3.67;3.30;;;;;;;12.71;100.00;99875.50;5379717;33;32087;-89
2022/05/24 04:46:19;;;;;;;4.18;3.28;;;;;;;12.72;100.00;99881.75;5379923;33;31637;-89
2022/05/24 04:49:25;;;;;;;3.75;3.17;;;;;;;12.74;100.00;99868.88;5379188;33;32144;-88
2022/05/24 04:52:36;;;;;;;5.68;3.70;;;;;;;12.64;100.00;99876.53;5381419;33;33838;-88
2022/05/24 04:55:39;;;;;;;3.40;3.10;;;;;;;12.71;100.00;99869.28;5394303;33;33515;-88
2022/05/24 04:58:45;;;;;;;4.62;3.40;;;;;;;12.64;100.00;99879.25;5381710;33;34658;-89
2022/05/24 05:01:51;;;;;;;4.15;3.30;;;;;;;12.60;100.00;99880.66;5391933;33;34980;-89
2022/05/24 05:04:55;;;;;;;2.92;2.70;;;;;;;12.56;100.00;99876.72;5393830;33;34831;-88
2022/05/24 05:07:58;;;;;;;3.50;3.20;;;;;;;12.51;100.00;99885.41;5379675;33;31604;-88
2022/05/24 05:11:01;;;;;;;4.55;3.55;;;;;;;12.45;100.00;99883.53;5379320;33;33983;-88
2022/05/24 05:14:07;;;;;;;4.20;3.08;;;;;;;12.45;100.00;99887.06;5377163;33;33786;-88
2022/05/24 05:17:12;;;;;;;4.55;3.40;;;;;;;12.42;100.00;99883.94;5378317;33;32528;-89
2022/05/24 05:20:15;;;;;;;5.15;3.30;;;;;;;12.47;100.00;99884.16;5390945;33;33828;-89
2022/05/24 05:23:18;;;;;;;4.00;3.60;;;;;;;12.53;100.00;99890.62;5375553;33;32588;-88
2022/05/24 05:26:21;;;;;;;4.37;3.62;;;;;;;12.45;100.00;99894.31;5387858;33;33693;-88
2022/05/24 05:32:52;;;;;;;4.28;3.53;;;;;;;12.33;100.00;99904.03;5359886;33;33500;-89
2022/05/24 05:35:56;;;;;;;5.07;3.87;;;;;;;12.31;100.00;99901.53;5351222;33;33085;-89
2022/05/24 05:38:59;;;;;;;5.62;4.07;;;;;;;12.31;100.00;99900.72;5355004;33;31574;-88
2022/05/24 05:42:03;;;;;;;4.65;4.18;;;;;;;12.28;100.00;99906.50;5354098;33;31815;-88
2022/05/24 05:45:10;;;;;;;6.47;4.57;;;;;;;12.30;100.00;99902.56;5349415;33;34813;-88
2022/05/24 05:48:13;;;;;;;4.82;4.00;;;;;;;12.27;100.00;99900.28;5349675;33;33410;-88
2022/05/24 05:51:18;;;;;;;4.75;3.90;;;;;;;12.14;100.00;99911.00;5335481;33;31815;-88
2022/05/24 05:54:25;;;;;;;4.95;4.10;;;;;;;12.05;100.00;99906.78;5353516;33;33552;-88
2022/05/24 05:57:28;;;;;;;4.65;4.15;;;;;;;12.07;100.00;99913.66;5363111;33;34316;-88
2022/05/24 06:00:31;;;;;;;5.68;3.83;;;;;;;12.15;100.00;99921.59;5357969;33;33934;-88
2022/05/24 06:03:33;;;;;;;6.05;4.03;;;;;;;12.24;100.00;99927.66;5338068;33;32958;-88
2022/05/24 06:06:40;;;;;;;5.95;4.32;;;;;;;12.27;100.00;99915.66;5355367;33;34619;-88
2022/05/24 06:09:42;;;;;;;5.15;4.47;;;;;;;12.31;100.00;99919.59;5362521;33;33875;-88
2022/05/24 06:12:48;;;;;;;5.18;4.20;;;;;;;12.38;100.00;99917.78;5358786;33;33460;-88
2022/05/24 06:15:51;;;;;;;7.37;4.45;;;;;;;12.46;100.00;99922.97;5338787;33;32404;-88
2022/05/24 06:18:54;;;;;;;6.97;4.03;;;;;;;12.43;100.00;99913.44;5351910;33;33958;-88
2022/05/24 06:21:57;;;;;;;5.37;4.00;;;;;;;12.43;100.00;99910.75;5376468;33;33374;-87
2022/05/24 06:25:00;;;;;;;6.28;4.25;;;;;;;12.43;100.00;99915.28;5355798;33;33339;-88
2022/05/24 06:28:17;;;;;;;4.35;3.72;;;;;;;12.50;100.00;99913.47;5364689;27;32091;-92
2022/05/24 06:31:19;;;;;;;5.70;3.97;;;;;;;12.47;100.00;99920.09;5381936;33;34386;-88
2022/05/24 06:34:23;;;;;;;5.28;4.40;;;;;;;12.47;100.00;99917.41;5374906;33;32775;-88
2022/05/24 06:37:26;;;;;;;4.97;4.25;;;;;;;12.46;100.00;99915.75;5374949;33;31713;-88
2022/05/24 06:40:29;;;;;;;6.55;4.60;;;;;;;12.52;100.00;99907.84;5389984;33;34117;-88
2022/05/24 06:43:33;;;;;;;5.35;4.05;;;;;;;12.59;100.00;99914.12;5389296;33;33882;-88
2022/05/24 06:46:38;;;;;;;4.30;3.83;;;;;;;12.68;100.00;99929.09;5375114;33;31807;-88
2022/05/24 06:49:41;;;;;;;4.40;4.00;;;;;;;12.70;100.00;99917.06;5374988;33;31761;-88
2022/05/24 06:52:44;;;;;;;6.05;3.87;;;;;;;12.75;100.00;99926.41;5390723;33;33797;-88
2022/05/24 06:55:53;;;;;;;4.37;3.97;;;;;;;12.72;100.00;99919.56;5366993;33;32610;-88
2022/05/24 07:02:27;;;;;;;4.70;3.95;;;;;;;12.93;100.00;99913.19;5359256;33;32566;-88
2022/05/24 07:05:30;;;;;;;5.75;4.22;;;;;;;13.07;100.00;99919.44;5388438;33;33533;-88
2022/05/24 07:08:44;;;;;;;5.32;3.70;;;;;;;13.23;100.00;99916.34;5367725;33;31751;-86
2022/05/24 07:11:47;;;;;;;4.18;3.78;;;;;;;13.37;100.00;99917.22;5380138;33;32577;-87
2022/05/24 07:14:51;;;;;;;4.85;4.00;;;;;;;13.49;100.00;99914.72;5389574;33;32348;-88
2022/05/24 07:17:55;;;;;;;4.47;3.75;;;;;;;13.67;100.00;99920.34;5386156;33;33507;-87
2022/05/24 07:20:58;;;;;;;3.97;3.60;;;;;;;13.79;100.00;99915.13;5383276;33;34916;-87
2022/05/24 07:24:01;;;;;;;4.05;3.60;;;;;;;14.01;100.00;99918.41;5373495;33;32256;-87
2022/05/24 07:27:07;;;;;;;3.53;3.22;;;;;;;14.26;100.00;99919.38;5378469;33;34210;-86
2022/05/24 07:30:11;;;;;;;4.30;3.70;;;;;;;14.34;100.00;99914.78;5376641;33;33048;-86
2022/05/24 07:33:16;;;;;;;4.10;3.37;;;;;;;14.37;100.00;99914.34;5362899;33;33663;-87
2022/05/24 07:36:18;;;;;;;5.05;3.47;;;;;;;14.51;99.80;99913.25;5375701;33;33357;-87
2022/05/24 07:39:21;;;;;;;3.90;3.60;;;;;;;14.78;100.00;99907.75;5362086;33;32076;-87
2022/05/24 07:45:52;;;;;;;3.95;3.40;;;;;;;15.66;95.14;99910.44;5368871;33;31754;-92
2022/05/24 07:48:55;;;;;;;3.50;3.20;;;;;;;15.70;90.82;99919.00;5387941;33;33538;-87
2022/05/24 07:51:58;;;;;;;3.42;3.12;;;;;;;15.99;90.24;99923.72;5382311;33;31775;-87
2022/05/24 07:55:01;;;;;;;3.33;2.92;;;;;;;16.38;89.02;99916.22;5362710;33;31842;-86
2022/05/24 07:58:04;;;;;;;3.42;3.00;;;;;;;16.73;82.30;99910.09;5363424;33;33081;-86
2022/05/24 08:01:07;;;;;;;3.15;2.95;;;;;;;16.47;80.94;99912.13;5365984;27;32124;-86
2022/05/24 08:04:10;;;;;;;3.60;3.30;;;;;;;16.73;83.79;99910.09;5335546;33;32417;-86
2022/05/24 08:07:13;;;;;;;3.47;3.17;;;;;;;16.75;84.44;99910.69;5336737;33;33484;-86
2022/05/24 08:10:19;;;;;;;3.83;3.30;;;;;;;16.68;82.80;99916.25;5332224;33;33079;-86
2022/05/24 08:13:22;;;;;;;3.25;2.92;;;;;;;16.74;82.31;99923.47;5324331;33;32165;-86
2022/05/24 08:16:26;;;;;;;4.53;3.35;;;;;;;16.88;84.29;99929.59;5320605;33;32315;-84
2022/05/24 08:19:29;;;;;;;3.12;2.85;;;;;;;16.97;83.56;99922.78;5326608;33;32356;-85
2022/05/24 08:22:32;;;;;;;3.17;2.83;;;;;;;17.19;85.23;99919.53;5335315;33;33409;-86
2022/05/24 08:25:35;;;;;;;2.70;2.22;;;;;;;17.49;81.98;99918.63;5328347;33;34029;-86
2022/05/24 08:28:41;;;;;;;2.55;2.35;;;;;;;17.57;77.49;99910.94;5337670;33;33029;-86
2022/05/24 08:31:44;;;;;;;5.10;1.98;;;;;;;17.57;77.68;99910.94;5345593;33;34240;-88
2022/05/24 08:34:48;;;;;;;2.62;2.40;;;;;;;17.68;76.97;99903.88;5333731;33;32968;-87
2022/05/24 08:37:52;;;;;;;3.45;2.53;;;;;;;17.73;77.34;99920.34;5336171;33;32649;-86
2022/05/24 08:41:00;;;;;;;2.30;2.08;;;;;;;17.52;74.38;99913.56;5340428;33;33509;-86
2022/05/24 08:51:23;;;;;;;2.72;2.20;;;;;;;17.81;67.68;99911.84;5346231;33;31951;-86
2022/05/24 08:54:46;;;;;;;2.72;1.83;;;;;;;17.90;67.79;99907.69;5356427;33;33079;-91
2022/05/24 08:57:57;;;;;;;4.47;1.58;;;;;;;18.18;68.74;99910.75;5341131;33;34634;-87
2022/05/24 09:01:01;;;;;;;1.65;1.52;;;;;;;18.33;66.65;99908.34;5342591;33;32116;-87
2022/05/24 09:04:08;;;;;;;2.15;1.60;;;;;;;18.73;66.31;99907.53;5334296;33;31814;-86
2022/05/24 09:07:27;;;;;;;1.42;1.30;;;;;;;19.07;67.60;99903.03;5341325;33;34028;-86
2022/05/24 09:10:52;;;;;;;1.87;1.25;;;;;;;19.09;63.35;99897.31;5343090;33;33105;-86
2022/05/24 09:14:24;;;;;;;1.37;1.30;;;;;;;19.03;61.77;99896.38;5335777;33;33220;-85
2022/05/24 09:17:47;;;;;;;1.65;1.45;;;;;;;18.71;62.41;99899.56;5337875;33;32546;-86
2022/05/24 09:20:51;;;;;;;2.00;1.52;;;;;;;19.19;62.45;99908.41;5341561;33;36753;-85
2022/05/24 09:24:09;;;;;;;0.90;0.88;;;;;;;19.19;60.53;99903.78;5339414;33;31944;-85
2022/05/24 09:27:12;;;;;;;1.42;1.33;;;;;;;19.37;62.31;99910.91;5342600;33;33164;-85
2022/05/24 09:30:24;;;;;;;1.20;1.08;;;;;;;19.55;60.88;99909.81;5330464;33;33469;-86
2022/05/24 09:33:31;;;;;;;1.52;1.42;;;;;;;19.47;61.13;99902.87;5336649;33;33608;-91
2022/05/24 09:36:37;;;;;;;1.00;0.95;;;;;;;19.61;60.30;99908.00;5323723;33;33608;-87
2022/05/24 09:39:59;;;;;;;1.67;1.52;;;;;;;19.59;60.85;99902.78;5323224;33;31973;-86
2022/05/24 09:43:29;;;;;;;1.10;1.08;;;;;;;19.69;60.34;99908.44;5327505;33;32846;-86
2022/05/24 09:46:35;;;;;;;1.52;1.35;;;;;;;19.64;60.28;99897.41;5324395;33;32800;-87
2022/05/24 09:49:38;;;;;;;1.70;1.37;;;;;;;19.94;59.82;99910.72;5333238;33;33172;-86
2022/05/24 09:53:08;;;;;;;1.80;1.10;;;;;;;20.81;56.55;99911.88;5318226;33;33958;-86
2022/05/24 09:56:24;;;;;;;1.48;1.30;;;;;;;21.15;57.25;99898.00;5335255;33;33532;-86
2022/05/24 09:59:28;;;;;;;2.58;1.58;;;;;;;21.37;56.74;99897.94;5328698;33;34092;-86
2022/05/24 10:02:32;;;;;;;1.40;1.30;;;;;;;21.48;57.13;99893.38;5318793;33;32164;-86
2022/05/24 10:05:36;;;;;;;1.35;1.08;;;;;;;21.76;57.38;99891.38;5316966;33;33472;-86
2022/05/24 10:08:45;;;;;;;2.75;1.30;;;;;;;21.61;54.78;99906.62;5321753;33;32292;-86
2022/05/24 10:12:39;;;;;;;1.15;1.05;;;;;;;21.45;53.93;99899.38;5326677;33;32368;-86
2022/05/24 10:15:59;;;;;;;1.17;1.10;;;;;;;21.92;55.35;99904.09;5325303;33;34762;-87
2022/05/24 10:19:21;;;;;;;1.15;1.05;;;;;;;22.03;53.30;99907.75;5337061;33;33083;-86
2022/05/24 10:22:38;;;;;;;1.55;1.35;;;;;;;22.29;50.44;99912.31;5320738;33;31741;-86
2022/05/24 10:25:56;;;;;;;1.30;1.20;;;;;;;22.08;53.32;99907.75;5335790;33;33450;-86
2022/05/24 10:29:25;;;;;;;5.45;1.15;;;;;;;22.31;52.29;99901.87;5334065;33;34305;-87
2022/05/24 10:40:01;;;;;;;1.48;1.12;;;;;;;22.97;49.50;99889.50;5340100;33;34239;-86
2022/05/24 10:43:07;;;;;;;2.22;1.12;;;;;;;22.81;48.07;99881.19;5334532;33;32814;-86
2022/05/24 10:46:16;;;;;;;1.27;1.17;;;;;;;23.07;47.45;99876.59;5332381;33;34125;-86
2022/05/24 10:49:33;;;;;;;1.60;1.10;;;;;;;22.91;48.29;99871.34;5338117;33;34920;-87
2022/05/24 10:52:56;;;;;;;1.95;0.90;;;;;;;22.71;47.49;99864.72;5335725;33;33512;-86
2022/05/24 10:56:08;;;;;;;2.40;1.10;;;;;;;23.23;48.59;99869.22;5332313;33;33539;-86
2022/05/24 10:59:49;;;;;;;1.70;1.00;;;;;;;23.56;46.30;99875.25;5335167;33;34236;-87
2022/05/24 11:03:08;;;;;;;1.62;1.30;;;;;;;23.17;47.29;99885.97;5329042;33;32875;-87
2022/05/24 11:06:23;;;;;;;2.90;1.50;;;;;;;22.82;49.22;99882.03;5329354;33;32060;-87
2022/05/24 11:09:32;;;;;;;1.85;1.60;;;;;;;23.15;48.70;99888.16;5323892;33;32333;-87
2022/05/24 11:12:43;;;;;;;1.30;1.20;;;;;;;23.92;45.57;99881.53;5335849;33;33783;-87
2022/05/24 11:15:52;;;;;;;3.42;1.20;;;;;;;25.10;42.32;99875.53;5335956;33;34930;-87
2022/05/24 11:19:00;;;;;;;1.65;1.50;;;;;;;25.24;43.50;99864.69;5322078;33;36023;-87
2022/05/24 11:22:07;;;;;;;2.03;1.30;;;;;;;25.50;42.09;99857.84;5336739;33;33737;-87
2022/05/24 11:25:17;;;;;;;1.95;1.00;;;;;;;26.35;40.63;99852.81;5336420;33;33128;-87
2022/05/24 11:28:24;;;;;;;1.77;1.50;;;;;;;27.26;37.53;99856.25;5336451;33;32979;-86
2022/05/24 11:31:47;;;;;;;2.15;1.83;;;;;;;27.29;37.44;99860.34;5322716;33;32096;-87
2022/05/24 11:35:10;;;;;;;1.33;1.23;;;;;;;27.11;39.85;99854.50;5335935;33;34289;-87
2022/05/24 11:38:20;;;;;;;1.37;1.27;;;;;;;27.78;37.80;99851.47;5325099;33;32087;-88
2022/05/24 11:41:31;;;;;;;1.80;1.70;;;;;;;28.84;35.31;99851.50;5324499;33;32176;-87
2022/05/24 11:44:37;;;;;;;0.98;0.95;;;;;;;29.52;34.73;99844.88;5335420;33;33312;-87
2022/05/24 11:47:46;;;;;;;1.23;1.20;;;;;;;30.64;32.36;99838.12;5324927;33;33551;-88
2022/05/24 11:50:50;;;;;;;1.50;1.40;;;;;;;31.12;31.25;99839.16;5336848;33;33013;-92
2022/05/24 11:53:53;;;;;;;1.85;1.20;;;;;;;30.53;31.62;99827.66;5335955;33;33262;-92
2022/05/24 11:57:00;;;;;;;1.40;1.30;;;;;;;31.56;29.41;99832.41;5344363;33;32928;-90
2022/05/24 12:00:04;;;;;;;1.60;1.50;;;;;;;30.84;33.20;99824.78;5354125;33;36137;-88
2022/05/24 12:09:58;;;;;;;2.62;1.50;;;;;;;32.28;29.20;99819.47;5345217;33;34650;-88
2022/05/24 12:13:05;;;;;;;1.42;1.33;;;;;;;32.35;31.15;99810.56;5335459;33;33332;-88
2022/05/24 12:16:44;;;;;;;1.30;1.20;;;;;;;32.88;28.62;99813.81;5326725;33;33578;-86
2022/05/24 12:19:51;;;;;;;1.85;1.17;;;;;;;33.28;29.48;99808.53;5322478;33;32009;-87
2022/05/24 12:23:06;;;;;;;1.45;1.35;;;;;;;32.44;29.06;99811.37;5334970;33;33219;-87
2022/05/24 12:26:20;;;;;;;1.60;1.50;;;;;;;33.17;28.25;99808.19;5339658;33;33703;-87
2022/05/24 12:29:24;;;;;;;1.42;1.33;;;;;;;32.90;29.30;99805.94;5338187;33;32404;-87
2022/05/24 12:32:31;;;;;;;1.58;1.48;;;;;;;32.73;28.42;99807.72;5313503;33;32143;-87
2022/05/24 12:35:35;;;;;;;1.08;1.08;;;;;;;32.18;29.87;99802.34;5316351;33;32097;-86
2022/05/24 12:38:39;;;;;;;1.30;1.20;;;;;;;32.70;29.09;99808.41;5318088;33;33493;-91
2022/05/24 12:42:01;;;;;;;1.73;1.62;;;;;;;32.72;29.01;99802.47;5335181;33;34196;-91
2022/05/24 12:45:06;;;;;;;1.80;1.50;;;;;;;32.91;28.45;99802.00;5322398;33;33196;-87
2022/05/24 12:48:24;;;;;;;4.03;1.45;;;;;;;32.07;30.86;99802.72;5332847;33;34267;-87
2022/05/24 12:51:27;;;;;;;1.50;1.40;;;;;;;30.84;30.56;99800.56;5329700;33;33560;-87
2022/05/24 12:54:36;;;;;;;1.30;1.25;;;;;;;32.13;29.39;99791.41;5343017;33;33901;-87
2022/05/24 12:57:47;;;;;;;3.37;1.00;;;;;;;33.31;28.95;99784.72;5329392;33;33365;-86
2022/05/24 13:00:50;;;;;;;1.65;1.55;;;;;;;35.27;25.81;99786.50;5339542;33;32598;-87
2022/05/24 13:04:16;;;;;;;2.12;1.30;;;;;;;34.62;26.66;99773.47;5323710;33;32206;-87
2022/05/24 13:07:38;;;;;;;1.05;1.05;;;;;;;35.52;24.52;99767.56;5347505;33;153385;-87
2022/05/24 13:10:41;;;;;;;1.15;1.00;;;;;;;33.74;26.35;99767.50;5355710;33;34692;-87
2022/05/24 13:13:44;;;;;;;2.22;1.45;;;;;;;31.17;29.32;99775.03;5330855;33;32566;-86
2022/05/24 13:16:48;;;;;;;1.52;1.23;;;;;;;31.59;29.32;99784.44;5330747;33;33785;-86
2022/05/24 13:19:56;;;;;;;1.30;1.20;;;;;;;32.99;27.33;99769.62;5322449;33;32554;-87
2022/05/24 13:23:05;;;;;;;1.42;1.17;;;;;;;32.61;28.35;99778.97;5336484;33;33464;-88
2022/05/24 13:26:11;;;;;;;3.47;1.40;;;;;;;31.63;28.55;99779.00;5315186;33;32419;-87
2022/05/24 13:29:24;;;;;;;1.50;1.40;;;;;;;31.28;29.16;99778.28;5343643;33;33608;-87
2022/05/24 13:35:49;;;;;;;1.17;1.08;;;;;;;32.94;27.45;99773.44;5341897;33;33305;-88
2022/05/24 13:39:35;;;;;;;1.80;1.45;;;;;;;32.62;27.92;99775.84;5336281;33;34891;-87
2022/05/24 13:42:53;;;;;;;1.37;1.30;;;;;;;31.24;29.54;99771.72;5320027;33;33542;-88
2022/05/24 13:46:26;;;;;;;1.10;1.10;;;;;;;31.25;29.98;99768.62;5341123;33;33347;-87
2022/05/24 13:49:37;;;;;;;1.73;1.40;;;;;;;31.96;27.94;99759.72;5310415;33;32118;-88
2022/05/24 13:52:49;;;;;;;1.30;1.20;;;;;;;30.83;29.83;99756.41;5335582;33;34169;-87
2022/05/24 13:56:05;;;;;;;1.10;1.10;;;;;;;30.54;30.80;99759.84;5333628;33;31830;-87
2022/05/24 13:59:29;;;;;;;1.23;1.20;;;;;;;31.66;28.81;99755.25;5332117;33;33414;-87
2022/05/24 14:02:38;;;;;;;1.20;1.10;;;;;;;30.44;31.55;99749.87;5354749;27;34505;-84
2022/05/24 14:05:42;;;;;;;1.20;1.10;;;;;;;30.07;31.37;99760.44;5361971;33;31568;-88
2022/05/24 14:08:47;;;;;;;1.65;1.55;;;;;;;29.31;33.90;99750.31;5365134;33;33354;-88
2022/05/24 14:11:57;;;;;;;1.33;1.23;;;;;;;28.61;34.07;99750.97;5363882;33;34072;-87
2022/05/24 14:15:06;;;;;;;1.50;1.40;;;;;;;27.61;35.77;99759.13;5361722;33;34896;-88
2022/05/24 14:18:09;;;;;;;1.55;1.23;;;;;;;26.67;38.62;99749.97;5362020;33;33847;-87
2022/05/24 14:21:13;;;;;;;1.77;1.58;;;;;;;25.96;39.23;99760.88;5353679;33;33720;-88
2022/05/24 14:24:18;;;;;;;1.55;1.45;;;;;;;25.40;40.30;99761.50;5356745;33;32831;-87
2022/05/24 14:27:21;;;;;;;1.40;1.30;;;;;;;25.20;42.38;99759.75;5358877;33;32666;-87
2022/05/24 14:30:24;;;;;;;1.70;1.60;;;;;;;24.94;43.84;99761.06;5360404;33;33657;-88
2022/05/24 14:33:27;;;;;;;5.93;3.70;;;;;;;24.54;42.60;99765.75;5358158;33;31978;-87
2022/05/24 14:36:32;;;;;;;3.95;2.87;;;;;;;24.17;43.47;99772.56;5358645;33;33434;-86
2022/05/24 14:39:35;;;;;;;2.62;2.22;;;;;;;24.29;44.43;99766.72;5361868;33;34279;-87
2022/05/24 14:42:42;;;;;;;1.80;1.70;;;;;;;24.23;44.60;99767.88;5361975;33;33507;-87
2022/05/24 14:45:45;;;;;;;1.67;1.58;;;;;;;24.29;45.14;99755.72;5361414;33;32489;-86
2022/05/24 14:48:51;;;;;;;1.70;1.60;;;;;;;24.18;44.34;99771.44;5361083;33;32372;-87
2022/05/24 14:52:00;;;;;;;3.17;2.80;;;;;;;24.01;46.40;99773.72;5360502;33;31801;-87
2022/05/24 14:55:06;;;;;;;3.72;3.42;;;;;;;23.85;44.16;99775.72;5355267;33;33118;-87
2022/05/24 14:58:12;;;;;;;7.32;4.78;;;;;;;23.72;43.12;99772.47;5349344;33;32437;-87
2022/05/24 15:01:14;;;;;;;9.50;5.05;;;;;;;23.30;45.18;99781.03;5364439;33;35346;-87
2022/05/24 15:04:17;;;;;;;6.18;3.90;;;;;;;23.21;45.65;99780.78;5363274;33;33724;-87
2022/05/24 15:18:02;;;;;;;9.13;4.18;;;;;;;23.24;45.47;99763.75;5355089;33;33501;-88
2022/05/24 15:21:05;;;;;;;5.53;2.75;;;;;;;23.25;45.36;99765.41;5360456;27;33158;-87
2022/05/24 15:24:12;;;;;;;2.22;1.75;;;;;;;23.12;45.87;99762.41;5360963;33;32340;-87
2022/05/24 15:27:16;;;;;;;4.78;2.65;;;;;;;22.94;46.23;99764.56;5368007;33;33726;-87
2022/05/24 15:34:40;;;;;;;4.60;2.60;;;;;;;22.83;46.88;99765.66;5363286;33;33348;-87
2022/05/24 15:37:45;;;;;;;4.95;2.83;;;;;;;22.80;47.43;99756.03;5364972;33;34286;-88
2022/05/24 15:40:48;;;;;;;4.85;2.62;;;;;;;22.84;47.54;99757.16;5396455;27;32477;-87
2022/05/24 15:47:59;;;;;;;2.25;2.05;;;;;;;22.69;46.52;99768.09;899506;27;20452;-88
2022/05/24 15:55:05;;;;;;;2.58;2.05;;;;;;;22.56;46.73;99750.28;4060204;27;20131;-87
